< < Back
Terminal Aerodrome Forecast


Current Version              Previous Versions:   1  2  3  4  5  6  7  8  9  

Terminal Aerodrome Forecast

145
FTUS44 KBMX 231400 AAB
TAFMGM
TAF AMD
KMGM 231452Z 2315/2412 36005KT P6SM SKC=



Latest METAR

241
SAUS80 KWBC 232000 CCA
MTRMGM
METAR KMGM 231953Z 31008KT 10SM SCT060 28/11 A2991 RMK AO2 SLP126
T02830111


USA.gov is the U.S. government's official web portal to all federal, state and local government web resources and services.